createdAt,value
2018-04-27T00:00:20.633Z,79.64
2018-04-27T00:01:24.785Z,79.55
2018-04-27T00:02:28.919Z,79.59
2018-04-27T00:03:33.106Z,79.58
2018-04-27T00:04:37.258Z,79.66
2018-04-27T00:05:41.527Z,79.76
2018-04-27T00:06:46.825Z,79.85
2018-04-27T00:07:51.064Z,79.93
2018-04-27T00:08:55.197Z,79.95
2018-04-27T00:09:59.521Z,79.91
2018-04-27T00:11:03.719Z,79.84
2018-04-27T00:12:07.847Z,79.74
2018-04-27T00:13:13.318Z,79.64
2018-04-27T00:14:17.432Z,79.60
2018-04-27T00:15:21.849Z,79.39
2018-04-27T00:16:26.040Z,79.33
2018-04-27T00:17:30.149Z,79.24
2018-04-27T00:18:34.361Z,78.98
2018-04-27T00:19:38.523Z,79.18
2018-04-27T00:20:42.751Z,79.27
2018-04-27T00:21:47.809Z,79.29
2018-04-27T00:22:52.018Z,79.40
2018-04-27T00:23:56.871Z,79.55
2018-04-27T00:25:01.096Z,79.68
2018-04-27T00:26:05.642Z,79.68
2018-04-27T00:27:09.786Z,79.75
2018-04-27T00:28:13.982Z,79.68
2018-04-27T00:29:18.112Z,79.51
2018-04-27T00:30:22.790Z,79.43
2018-04-27T00:31:26.920Z,79.51
2018-04-27T00:32:31.262Z,79.60
2018-04-27T00:33:35.534Z,79.54
2018-04-27T00:34:39.784Z,79.48
2018-04-27T00:35:43.940Z,79.18
2018-04-27T00:36:48.360Z,79.14
2018-04-27T00:37:52.604Z,79.28
2018-04-27T00:38:57.838Z,79.09
2018-04-27T00:40:02.009Z,79.19
2018-04-27T00:41:06.157Z,79.27
2018-04-27T00:42:10.311Z,79.32
2018-04-27T00:43:14.743Z,78.96
2018-04-27T00:44:18.961Z,78.91
2018-04-27T00:45:23.298Z,78.74
2018-04-27T00:46:27.419Z,78.82
2018-04-27T00:47:31.746Z,78.62
2018-04-27T00:48:35.875Z,78.66
2018-04-27T00:49:40.329Z,78.72
2018-04-27T00:50:44.444Z,78.55
2018-04-27T00:51:48.648Z,78.54
2018-04-27T00:53:01.453Z,78.68
2018-04-27T00:54:05.608Z,78.51
2018-04-27T00:55:09.834Z,78.14
2018-04-27T00:56:14.019Z,78.07
2018-04-27T00:57:18.147Z,78.14
2018-04-27T00:58:22.369Z,78.07
2018-04-27T00:59:26.525Z,78.05
2018-04-27T01:00:31.005Z,77.99
2018-04-27T01:01:35.132Z,77.80
2018-04-27T01:02:39.576Z,78.02
2018-04-27T01:03:43.853Z,77.90
2018-04-27T01:04:48.033Z,77.89
2018-04-27T01:05:52.177Z,77.89
2018-04-27T01:06:57.166Z,78.04
2018-04-27T01:08:01.302Z,77.90
2018-04-27T01:09:06.796Z,77.84
2018-04-27T01:10:11.062Z,77.89
2018-04-27T01:11:15.179Z,77.80
2018-04-27T01:12:19.312Z,77.33
2018-04-27T01:13:23.557Z,77.53
2018-04-27T01:14:29.710Z,77.31
2018-04-27T01:15:34.660Z,77.46
2018-04-27T01:16:39.300Z,77.75
2018-04-27T01:17:43.550Z,77.78
2018-04-27T01:18:47.690Z,77.78
2018-04-27T01:19:52.594Z,77.62
2018-04-27T01:20:56.720Z,77.74
2018-04-27T01:22:01.150Z,77.61
2018-04-27T01:23:05.610Z,77.95
2018-04-27T01:24:10.395Z,77.97
2018-04-27T01:25:14.782Z,78.08
2018-04-27T01:26:18.920Z,78.12
2018-04-27T01:27:23.034Z,78.32
2018-04-27T01:28:27.349Z,78.30
2018-04-27T01:29:31.456Z,78.40
2018-04-27T01:30:35.882Z,78.17
2018-04-27T01:31:40.000Z,78.10
2018-04-27T01:32:44.159Z,78.10
2018-04-27T01:33:48.297Z,77.96
2018-04-27T01:34:52.698Z,78.14
2018-04-27T01:35:56.839Z,78.10
2018-04-27T01:37:00.958Z,78.02
2018-04-27T01:38:05.201Z,78.12
2018-04-27T01:39:09.329Z,78.07
2018-04-27T01:40:13.506Z,78.26
2018-04-27T01:41:17.942Z,78.25
2018-04-27T01:42:22.141Z,78.45
2018-04-27T01:43:26.268Z,78.49
2018-04-27T01:44:30.463Z,78.55
2018-04-27T01:45:34.859Z,78.62
2018-04-27T01:46:38.974Z,78.75
2018-04-27T01:47:44.325Z,78.74
2018-04-27T01:48:48.568Z,78.79
2018-04-27T01:49:52.700Z,78.73
2018-04-27T01:50:56.800Z,78.97
2018-04-27T01:52:00.980Z,79.04
2018-04-27T01:53:05.192Z,78.99
2018-04-27T01:54:09.616Z,79.18
2018-04-27T01:55:13.763Z,78.97
2018-04-27T01:56:17.874Z,78.92
2018-04-27T01:57:22.004Z,79.05
2018-04-27T01:58:26.286Z,79.24
2018-04-27T01:59:30.403Z,79.47
2018-04-27T02:00:35.350Z,79.49
2018-04-27T02:01:39.794Z,79.45
2018-04-27T02:02:43.930Z,79.49
2018-04-27T02:03:48.112Z,79.74
2018-04-27T02:04:53.119Z,79.95
2018-04-27T02:05:57.618Z,79.89
2018-04-27T02:07:01.720Z,79.99
2018-04-27T02:08:06.037Z,79.77
2018-04-27T02:09:10.191Z,79.72
2018-04-27T02:10:14.339Z,79.64
2018-04-27T02:11:18.482Z,79.76
2018-04-27T02:12:22.928Z,79.98
2018-04-27T02:13:27.170Z,80.31
2018-04-27T02:14:31.286Z,80.30
2018-04-27T02:15:35.712Z,80.66
2018-04-27T02:16:41.114Z,80.74
2018-04-27T02:17:46.052Z,80.75
2018-04-27T02:18:50.280Z,80.75
2018-04-27T02:19:55.320Z,80.87
2018-04-27T02:20:59.537Z,80.83
2018-04-27T02:22:03.660Z,80.90
2018-04-27T02:23:07.900Z,80.81
2018-04-27T02:24:12.366Z,81.03
2018-04-27T02:25:16.526Z,80.97
2018-04-27T02:26:20.684Z,81.25
2018-04-27T02:27:24.880Z,81.46
2018-04-27T02:28:29.033Z,81.60
2018-04-27T02:29:33.206Z,81.49
2018-04-27T02:30:38.083Z,81.66
2018-04-27T02:31:42.253Z,81.94
2018-04-27T02:32:46.365Z,82.07
2018-04-27T02:33:50.472Z,82.12
2018-04-27T02:34:55.279Z,82.11
2018-04-27T02:35:59.496Z,82.33
2018-04-27T02:37:03.627Z,82.23
2018-04-27T02:38:07.827Z,82.08
2018-04-27T02:39:11.933Z,82.09
2018-04-27T02:40:16.139Z,82.34
2018-04-27T02:41:20.271Z,82.47
2018-04-27T02:42:24.697Z,82.76
2018-04-27T02:43:28.833Z,82.97
2018-04-27T02:44:33.029Z,83.29
2018-04-27T02:45:37.297Z,83.30
2018-04-27T02:46:42.265Z,83.22
2018-04-27T02:47:46.489Z,83.27
2018-04-27T02:48:50.967Z,83.25
2018-04-27T02:49:55.138Z,83.34
2018-04-27T02:50:59.258Z,83.50
2018-04-27T02:52:03.383Z,83.85
2018-04-27T02:53:07.625Z,83.78
2018-04-27T02:54:11.759Z,83.64
2018-04-27T02:55:16.218Z,83.69
2018-04-27T02:56:20.376Z,83.73
2018-04-27T02:57:24.625Z,83.80
2018-04-27T02:58:28.836Z,83.82
2018-04-27T02:59:33.040Z,84.02
2018-04-27T03:00:37.562Z,84.25
2018-04-27T03:01:41.777Z,84.08
2018-04-27T03:02:45.896Z,84.03
2018-04-27T03:03:50.596Z,83.89
2018-04-27T03:04:54.774Z,83.84
2018-04-27T03:05:59.032Z,83.78
2018-04-27T03:07:03.154Z,83.92
2018-04-27T03:08:07.620Z,83.92
2018-04-27T03:09:11.885Z,84.07
2018-04-27T03:10:16.010Z,84.28
2018-04-27T03:11:20.143Z,84.99
2018-04-27T03:12:24.265Z,84.83
2018-04-27T03:13:28.767Z,84.77
2018-04-27T03:14:32.940Z,84.74
2018-04-27T03:15:37.471Z,84.76
2018-04-27T03:16:42.719Z,84.81
2018-04-27T03:17:46.866Z,85.16
2018-04-27T03:18:51.071Z,85.17
2018-04-27T03:19:55.545Z,85.00
2018-04-27T03:20:59.681Z,84.97
2018-04-27T03:22:03.878Z,85.29
2018-04-27T03:23:08.008Z,85.59
2018-04-27T03:24:12.252Z,85.68
2018-04-27T03:25:16.440Z,85.76
2018-04-27T03:26:20.872Z,85.53
2018-04-27T03:27:24.999Z,85.62
2018-04-27T03:28:29.218Z,85.55
2018-04-27T03:29:33.341Z,86.01
2018-04-27T03:30:37.805Z,86.43
2018-04-27T03:31:42.014Z,86.39
2018-04-27T03:32:46.499Z,86.33
2018-04-27T03:33:51.127Z,86.35
2018-04-27T03:34:56.177Z,86.36
2018-04-27T03:36:00.407Z,86.17
2018-04-27T03:37:04.574Z,86.12
2018-04-27T03:38:08.766Z,85.97
2018-04-27T03:39:13.182Z,86.07
2018-04-27T03:40:17.303Z,86.02
2018-04-27T03:41:21.444Z,86.00
2018-04-27T03:42:25.649Z,86.14
2018-04-27T03:43:29.768Z,86.05
2018-04-27T03:44:33.990Z,85.98
2018-04-27T03:45:38.429Z,85.98
2018-04-27T03:46:42.539Z,86.04
2018-04-27T03:47:46.742Z,86.20
2018-04-27T03:48:50.897Z,86.06
2018-04-27T03:49:55.888Z,86.05
2018-04-27T03:51:00.491Z,85.91
2018-04-27T03:52:04.601Z,85.83
2018-04-27T03:53:08.721Z,85.82
2018-04-27T03:54:12.934Z,85.83
2018-04-27T03:55:17.045Z,86.04
2018-04-27T03:56:21.185Z,86.08
2018-04-27T03:57:25.633Z,86.29
2018-04-27T03:58:29.855Z,86.35
2018-04-27T03:59:43.523Z,86.30
2018-04-27T04:00:58.600Z,86.19
2018-04-27T04:03:11.161Z,86.26
2018-04-27T04:05:27.846Z,86.65
2018-04-27T04:06:32.048Z,87.14
2018-04-27T04:07:36.165Z,87.16
2018-04-27T04:08:40.355Z,87.27
2018-04-27T04:09:45.129Z,87.09
2018-04-27T04:10:49.535Z,86.89
2018-04-27T04:11:53.682Z,86.81
2018-04-27T04:12:57.918Z,86.82
2018-04-27T04:14:02.037Z,86.87
2018-04-27T04:15:06.865Z,86.84
2018-04-27T04:16:11.281Z,86.93
2018-04-27T04:17:15.794Z,87.23
2018-04-27T04:18:19.997Z,87.21
2018-04-27T04:19:24.115Z,86.92
2018-04-27T04:20:28.283Z,86.75
2018-04-27T04:21:32.457Z,86.60
2018-04-27T04:22:37.687Z,86.58
2018-04-27T04:23:42.181Z,86.45
2018-04-27T04:24:46.329Z,86.31
2018-04-27T04:25:50.501Z,86.42
2018-04-27T04:26:54.681Z,86.21
2018-04-27T04:27:58.910Z,86.07
2018-04-27T04:29:03.043Z,85.97
2018-04-27T04:30:07.583Z,85.95
2018-04-27T04:31:11.691Z,86.17
2018-04-27T04:32:15.892Z,86.19
2018-04-27T04:33:19.995Z,86.20
2018-04-27T04:34:24.147Z,86.10
2018-04-27T04:35:28.276Z,85.56
2018-04-27T04:36:32.711Z,85.38
2018-04-27T04:37:36.941Z,85.38
2018-04-27T04:38:41.073Z,85.31
2018-04-27T04:39:45.213Z,85.04
2018-04-27T04:40:49.405Z,85.02
2018-04-27T04:41:53.621Z,84.87
2018-04-27T04:42:57.721Z,84.77
2018-04-27T04:44:01.883Z,84.62
2018-04-27T04:45:07.066Z,84.65
2018-04-27T04:46:11.484Z,84.68
2018-04-27T04:47:15.953Z,84.72
2018-04-27T04:48:20.714Z,84.02
2018-04-27T04:49:24.982Z,84.05
2018-04-27T04:50:29.189Z,83.84
2018-04-27T04:51:33.442Z,83.91
2018-04-27T04:52:37.696Z,83.87
2018-04-27T04:53:41.831Z,83.93
2018-04-27T04:54:46.066Z,84.06
2018-04-27T04:55:50.217Z,83.08
2018-04-27T04:56:54.383Z,82.91
2018-04-27T04:57:58.623Z,82.48
2018-04-27T04:59:02.751Z,82.31
2018-04-27T05:00:07.947Z,82.05
2018-04-27T05:01:12.929Z,81.98
2018-04-27T05:02:17.167Z,81.77
2018-04-27T05:03:21.348Z,81.60
2018-04-27T05:04:25.554Z,81.37
2018-04-27T05:05:29.757Z,81.46
2018-04-27T05:06:33.912Z,80.84
2018-04-27T05:07:38.241Z,80.49
2018-04-27T05:08:42.358Z,79.24
2018-04-27T05:09:47.561Z,78.39
2018-04-27T05:10:53.136Z,78.94
2018-04-27T05:11:57.295Z,78.93
2018-04-27T05:13:01.743Z,79.48
2018-04-27T05:14:05.905Z,79.35
2018-04-27T05:15:10.072Z,79.57
2018-04-27T05:16:14.295Z,78.48
2018-04-27T05:17:18.431Z,76.90
2018-04-27T05:18:22.810Z,76.68
2018-04-27T05:19:26.977Z,76.27
2018-04-27T05:20:29.649Z,75.20
2018-04-27T05:21:33.798Z,76.29
2018-04-27T05:22:38.099Z,75.98
2018-04-27T05:23:42.338Z,75.55
2018-04-27T05:24:46.945Z,75.56
2018-04-27T05:25:51.158Z,75.08
2018-04-27T05:26:55.303Z,75.68
2018-04-27T05:28:00.337Z,75.91
2018-04-27T05:29:04.477Z,76.55
2018-04-27T05:30:08.717Z,76.90
2018-04-27T05:31:21.523Z,76.26
2018-04-27T05:32:25.887Z,75.49
2018-04-27T05:33:30.029Z,75.36
2018-04-27T05:34:34.245Z,74.81
2018-04-27T05:35:38.840Z,73.70
2018-04-27T05:36:42.962Z,74.59
2018-04-27T05:37:47.214Z,75.04
2018-04-27T05:38:51.340Z,75.08
2018-04-27T05:39:55.980Z,75.69
2018-04-27T05:41:00.140Z,75.69
2018-04-27T05:42:04.735Z,75.77
2018-04-27T05:43:08.883Z,75.71
2018-04-27T05:44:13.018Z,75.99
2018-04-27T05:45:17.141Z,76.22
2018-04-27T05:46:21.462Z,76.19
2018-04-27T05:47:25.612Z,74.60
2018-04-27T05:48:30.092Z,74.36
2018-04-27T05:49:34.268Z,74.88
2018-04-27T05:50:38.679Z,74.58
2018-04-27T05:51:42.854Z,74.71
2018-04-27T05:52:47.994Z,75.12
2018-04-27T05:53:52.192Z,74.92
2018-04-27T05:54:56.346Z,75.55
2018-04-27T05:56:00.533Z,75.37
2018-04-27T05:57:04.666Z,75.67
2018-04-27T05:58:08.920Z,75.10
2018-04-27T05:59:13.039Z,75.22
2018-04-27T06:00:17.822Z,75.46
2018-04-27T06:01:22.194Z,74.33
2018-04-27T06:02:26.317Z,73.15
2018-04-27T06:03:39.234Z,71.20
2018-04-27T06:04:43.444Z,71.58
2018-04-27T06:05:47.719Z,71.39
2018-04-27T06:06:52.149Z,71.40
2018-04-27T06:07:56.369Z,70.32
2018-04-27T06:09:00.485Z,71.04
2018-04-27T06:10:04.611Z,70.93
2018-04-27T06:11:08.747Z,71.29
2018-04-27T06:12:13.247Z,70.28
2018-04-27T06:13:17.371Z,70.76
2018-04-27T06:14:21.637Z,71.32
2018-04-27T06:15:25.875Z,70.58
2018-04-27T06:16:30.084Z,71.43
2018-04-27T06:17:34.221Z,71.56
2018-04-27T06:18:38.667Z,71.43
2018-04-27T06:19:42.862Z,68.96
2018-04-27T06:20:47.241Z,68.38
2018-04-27T06:21:51.484Z,69.17
2018-04-27T06:22:56.413Z,70.08
2018-04-27T06:24:00.568Z,69.90
2018-04-27T06:25:06.242Z,69.05
2018-04-27T06:26:10.496Z,68.83
2018-04-27T06:27:14.652Z,68.27
2018-04-27T06:28:18.881Z,68.69
2018-04-27T06:29:23.039Z,69.17
2018-04-27T06:30:27.631Z,69.29
2018-04-27T06:31:31.780Z,69.48
2018-04-27T06:32:35.916Z,69.47
2018-04-27T06:33:40.049Z,68.67
2018-04-27T06:34:44.345Z,67.90
2018-04-27T06:35:48.492Z,68.63
2018-04-27T06:36:52.598Z,69.18
2018-04-27T06:37:58.582Z,68.23
2018-04-27T06:39:02.812Z,67.00
2018-04-27T06:40:07.006Z,65.95
2018-04-27T06:41:11.122Z,65.69
2018-04-27T06:42:15.272Z,66.36
2018-04-27T06:43:19.472Z,65.35
2018-04-27T06:44:24.255Z,65.77
2018-04-27T06:45:28.724Z,66.30
2018-04-27T06:46:32.868Z,64.58
2018-04-27T06:47:36.986Z,65.49
2018-04-27T06:48:41.192Z,64.49
2018-04-27T06:49:45.470Z,63.38
2018-04-27T06:50:49.726Z,65.34
2018-04-27T06:51:53.994Z,66.30
2018-04-27T06:52:58.202Z,66.34
2018-04-27T06:54:02.604Z,67.53
2018-04-27T06:55:06.855Z,67.24
2018-04-27T06:56:11.000Z,66.46
2018-04-27T06:57:15.249Z,66.13
2018-04-27T06:58:19.459Z,67.61
2018-04-27T06:59:23.664Z,67.77
2018-04-27T07:00:28.442Z,67.95
2018-04-27T07:01:33.032Z,67.25
2018-04-27T07:02:37.175Z,66.38
2018-04-27T07:03:41.384Z,65.37
2018-04-27T07:04:45.683Z,65.70
2018-04-27T07:05:49.924Z,66.75
2018-04-27T07:06:54.414Z,66.05
2018-04-27T07:07:58.646Z,65.84
2018-04-27T07:09:02.964Z,65.26
2018-04-27T07:10:08.114Z,65.07
2018-04-27T07:11:12.240Z,66.22
2018-04-27T07:12:16.407Z,66.35
2018-04-27T07:13:20.653Z,67.21
2018-04-27T07:14:24.794Z,66.16
2018-04-27T07:15:29.464Z,67.03
2018-04-27T07:16:33.897Z,67.37
2018-04-27T07:17:38.097Z,67.48
2018-04-27T07:18:42.545Z,66.80
2018-04-27T07:19:46.887Z,66.50
2018-04-27T07:20:51.101Z,66.37
2018-04-27T07:21:55.219Z,67.33
2018-04-27T07:22:59.474Z,65.63
2018-04-27T07:24:03.680Z,65.92
2018-04-27T07:25:09.047Z,66.35
2018-04-27T07:26:14.082Z,66.88
2018-04-27T07:27:18.259Z,67.95
2018-04-27T07:28:22.385Z,67.71
2018-04-27T07:29:26.527Z,66.25
2018-04-27T07:30:30.967Z,65.96
2018-04-27T07:31:35.796Z,65.21
2018-04-27T07:32:39.941Z,63.23
2018-04-27T07:33:44.152Z,63.71
2018-04-27T07:34:48.448Z,63.55
2018-04-27T07:35:52.653Z,63.18
2018-04-27T07:36:56.778Z,64.35
2018-04-27T07:38:01.297Z,63.28
2018-04-27T07:39:06.883Z,64.60
2018-04-27T07:40:11.095Z,64.11
2018-04-27T07:41:15.326Z,64.20
2018-04-27T07:42:19.547Z,63.43
2018-04-27T07:43:23.750Z,64.34
2018-04-27T07:44:28.007Z,63.70
2018-04-27T07:45:32.311Z,64.75
2018-04-27T07:46:36.538Z,63.38
2018-04-27T07:47:40.702Z,62.90
2018-04-27T07:48:44.876Z,63.62
2018-04-27T07:49:49.296Z,63.59
2018-04-27T07:50:53.843Z,63.84
2018-04-27T07:51:58.006Z,63.25
2018-04-27T07:53:02.141Z,64.24
2018-04-27T07:54:06.338Z,62.68
2018-04-27T07:55:10.576Z,62.31
2018-04-27T07:56:15.018Z,61.06
2018-04-27T07:57:20.241Z,60.80
2018-04-27T07:58:24.440Z,60.25
2018-04-27T07:59:28.582Z,60.09
2018-04-27T08:00:33.146Z,60.44
2018-04-27T08:01:37.423Z,60.93
2018-04-27T08:02:42.352Z,58.06
2018-04-27T08:03:46.593Z,58.96
2018-04-27T08:04:51.053Z,58.46
2018-04-27T08:05:55.193Z,59.98
2018-04-27T08:06:59.338Z,59.58
2018-04-27T08:08:03.568Z,59.74
2018-04-27T08:09:08.171Z,59.98
2018-04-27T08:10:12.431Z,60.59
2018-04-27T08:11:17.391Z,59.71
2018-04-27T08:12:21.651Z,59.53
2018-04-27T08:13:25.878Z,59.20
2018-04-27T08:14:30.148Z,58.10
2018-04-27T08:15:35.102Z,56.03
2018-04-27T08:16:39.421Z,55.88
2018-04-27T08:17:43.681Z,56.44
2018-04-27T08:18:47.989Z,57.00
2018-04-27T08:19:52.338Z,58.82
2018-04-27T08:20:56.497Z,58.71
2018-04-27T08:22:01.080Z,58.16
2018-04-27T08:23:05.462Z,55.58
2018-04-27T08:24:09.648Z,56.16
2018-04-27T08:25:14.230Z,58.02
2018-04-27T08:26:20.247Z,60.06
2018-04-27T08:27:24.490Z,57.08
2018-04-27T08:28:28.780Z,55.86
2018-04-27T08:29:32.963Z,57.98
2018-04-27T08:30:37.600Z,56.85
2018-04-27T08:31:41.888Z,57.87
2018-04-27T08:32:46.096Z,53.71
2018-04-27T08:33:50.650Z,54.33
2018-04-27T08:34:55.039Z,54.73
2018-04-27T08:35:59.182Z,54.13
2018-04-27T08:37:03.418Z,53.25
2018-04-27T08:38:07.533Z,54.80
2018-04-27T08:39:11.669Z,55.36
2018-04-27T08:40:15.887Z,54.56
2018-04-27T08:41:20.798Z,53.52
2018-04-27T08:42:24.956Z,54.13
2018-04-27T08:43:29.170Z,51.51
2018-04-27T08:44:33.420Z,51.69
2018-04-27T08:45:38.045Z,51.25
2018-04-27T08:46:42.188Z,51.89
2018-04-27T08:47:46.421Z,55.44
2018-04-27T08:48:50.626Z,54.07
2018-04-27T08:49:54.982Z,52.12
2018-04-27T08:50:59.418Z,51.10
2018-04-27T08:52:03.584Z,52.45
2018-04-27T08:53:08.728Z,53.45
2018-04-27T08:54:12.954Z,52.14
2018-04-27T08:55:17.093Z,52.87
2018-04-27T08:56:21.953Z,52.01
2018-04-27T08:57:26.100Z,52.71
2018-04-27T08:58:31.160Z,53.43
2018-04-27T08:59:35.305Z,51.34
2018-04-27T09:00:39.856Z,53.27
2018-04-27T09:01:44.005Z,52.70
2018-04-27T09:02:48.477Z,51.36
2018-04-27T09:03:52.849Z,50.29
2018-04-27T09:04:57.070Z,51.22
2018-04-27T09:06:01.226Z,49.85
2018-04-27T09:07:05.438Z,48.69
2018-04-27T09:08:09.914Z,46.61
2018-04-27T09:09:14.848Z,46.00
2018-04-27T09:10:19.105Z,47.58
2018-04-27T09:11:23.326Z,48.92
2018-04-27T09:12:27.469Z,50.58
2018-04-27T09:13:31.596Z,50.21
2018-04-27T09:14:37.301Z,50.93
2018-04-27T09:15:41.715Z,50.00
2018-04-27T09:16:45.929Z,52.34
2018-04-27T09:17:50.074Z,52.55
2018-04-27T09:18:54.296Z,53.34
2018-04-27T09:19:58.671Z,52.83
2018-04-27T09:21:02.971Z,51.09
2018-04-27T09:22:07.325Z,51.71
2018-04-27T09:23:11.494Z,49.63
2018-04-27T09:24:16.549Z,50.49
2018-04-27T09:25:20.675Z,50.60
2018-04-27T09:26:25.121Z,51.87
2018-04-27T09:27:29.391Z,53.07
2018-04-27T09:28:33.595Z,53.55
2018-04-27T09:29:38.263Z,55.71
2018-04-27T09:30:42.810Z,50.36
2018-04-27T09:31:46.927Z,48.38
2018-04-27T09:32:51.521Z,46.02
2018-04-27T09:33:55.705Z,44.89
2018-04-27T09:35:00.016Z,46.83
2018-04-27T09:36:04.288Z,46.33
2018-04-27T09:37:09.036Z,46.79
2018-04-27T09:38:13.587Z,46.43
2018-04-27T09:39:19.040Z,46.93
2018-04-27T09:40:23.227Z,46.29
2018-04-27T09:41:27.401Z,46.82
2018-04-27T09:42:31.605Z,45.54
2018-04-27T09:43:35.970Z,45.76
2018-04-27T09:44:41.039Z,47.21
2018-04-27T09:45:45.376Z,48.18
2018-04-27T09:46:49.903Z,47.78
2018-04-27T09:47:54.105Z,48.71
2018-04-27T09:48:58.394Z,48.22
2018-04-27T09:50:02.743Z,46.18
2018-04-27T09:51:07.019Z,46.76
2018-04-27T09:52:11.315Z,46.76
2018-04-27T09:53:16.217Z,47.46
2018-04-27T09:54:20.475Z,46.76
2018-04-27T09:55:24.614Z,47.42
2018-04-27T09:56:29.127Z,46.14
2018-04-27T09:57:33.390Z,46.35
2018-04-27T09:58:38.342Z,48.03
2018-04-27T09:59:42.568Z,46.82
2018-04-27T10:00:46.690Z,45.56
2018-04-27T10:01:50.856Z,43.25
2018-04-27T10:02:55.279Z,43.99
2018-04-27T10:03:59.675Z,43.91
2018-04-27T10:05:04.149Z,45.75
2018-04-27T10:06:08.281Z,44.87
2018-04-27T10:07:12.766Z,45.08
2018-04-27T10:08:16.969Z,43.81
2018-04-27T10:09:21.208Z,42.46
2018-04-27T10:10:25.362Z,42.11
2018-04-27T10:11:29.547Z,42.52
2018-04-27T10:12:33.773Z,42.50
2018-04-27T10:13:39.137Z,44.00
2018-04-27T10:14:43.261Z,42.16
2018-04-27T10:15:47.711Z,43.96
2018-04-27T10:16:51.983Z,42.24
2018-04-27T10:17:56.131Z,43.49
2018-04-27T10:19:00.799Z,45.02
2018-04-27T10:20:05.127Z,45.10
2018-04-27T10:21:09.656Z,44.98
2018-04-27T10:22:13.783Z,43.78
2018-04-27T10:23:18.044Z,42.41
2018-04-27T10:24:22.254Z,39.46
2018-04-27T10:25:26.769Z,40.84
2018-04-27T10:26:31.069Z,40.97
2018-04-27T10:27:35.265Z,40.25
2018-04-27T10:28:39.395Z,42.34
2018-04-27T10:29:43.567Z,41.32
2018-04-27T10:30:48.014Z,42.64
2018-04-27T10:31:52.157Z,42.88
2018-04-27T10:32:56.310Z,42.62
2018-04-27T10:34:00.438Z,41.30
2018-04-27T10:35:04.756Z,40.43
2018-04-27T10:36:09.160Z,39.66
2018-04-27T10:37:13.663Z,39.37
2018-04-27T10:38:17.937Z,40.49
2018-04-27T10:39:23.019Z,40.92
2018-04-27T10:40:27.275Z,41.03
2018-04-27T10:41:31.642Z,38.65
2018-04-27T10:42:36.561Z,40.04
2018-04-27T10:43:41.027Z,41.55
2018-04-27T10:44:45.173Z,40.65
2018-04-27T10:45:49.398Z,41.12
2018-04-27T10:46:53.855Z,41.93
2018-04-27T10:47:58.001Z,41.58
2018-04-27T10:49:02.173Z,42.07
2018-04-27T10:50:06.730Z,42.75
2018-04-27T10:51:10.888Z,40.96
2018-04-27T10:52:15.041Z,42.38
2018-04-27T10:53:19.327Z,40.79
2018-04-27T10:54:23.976Z,41.03
2018-04-27T10:55:28.112Z,40.34
2018-04-27T10:56:32.552Z,40.60
2018-04-27T10:57:36.818Z,42.60
2018-04-27T10:58:40.950Z,41.68
2018-04-27T10:59:46.003Z,41.69
2018-04-27T11:00:50.397Z,42.66
2018-04-27T11:01:54.718Z,40.30
2018-04-27T11:02:59.171Z,40.78
2018-04-27T11:04:03.443Z,40.41
2018-04-27T11:05:07.857Z,40.35
2018-04-27T11:06:12.103Z,39.72
2018-04-27T11:07:16.255Z,40.81
2018-04-27T11:08:20.957Z,39.63
2018-04-27T11:09:25.437Z,39.55
2018-04-27T11:10:29.677Z,39.52
2018-04-27T11:11:33.820Z,39.28
2018-04-27T11:12:37.988Z,38.10
2018-04-27T11:13:42.217Z,38.26
2018-04-27T11:14:46.494Z,36.36
2018-04-27T11:15:51.214Z,36.67
2018-04-27T11:16:56.227Z,35.73
2018-04-27T11:18:00.021Z,36.26
2018-04-27T11:19:04.260Z,36.52
2018-04-27T11:20:08.730Z,36.61
2018-04-27T11:21:12.988Z,37.33
2018-04-27T11:22:17.209Z,37.45
2018-04-27T11:23:21.377Z,38.43
2018-04-27T11:24:26.666Z,37.71
2018-04-27T11:25:36.076Z,36.20
2018-04-27T11:26:40.324Z,36.35
2018-04-27T11:27:45.320Z,36.56
2018-04-27T11:28:49.810Z,38.20
2018-04-27T11:29:53.961Z,37.76
2018-04-27T11:30:58.176Z,36.11
2018-04-27T11:32:02.423Z,36.43
2018-04-27T11:33:06.910Z,37.18
2018-04-27T11:34:11.117Z,36.34
2018-04-27T11:35:15.615Z,37.45
2018-04-27T11:36:19.775Z,37.13
2018-04-27T11:37:24.542Z,38.51
2018-04-27T11:38:28.782Z,37.18
2018-04-27T11:39:32.941Z,36.25
2018-04-27T11:40:37.097Z,36.36
2018-04-27T11:41:41.557Z,36.24
2018-04-27T11:42:45.789Z,36.35
2018-04-27T11:43:49.983Z,36.05
2018-04-27T11:44:54.117Z,37.57
2018-04-27T11:45:58.359Z,36.48
2018-04-27T11:47:02.541Z,37.21
2018-04-27T11:48:06.855Z,36.95
2018-04-27T11:49:11.055Z,35.39
2018-04-27T11:50:15.589Z,35.85
2018-04-27T11:51:19.875Z,35.62
2018-04-27T11:52:24.956Z,34.60
2018-04-27T11:53:29.564Z,35.42
2018-04-27T11:54:33.958Z,35.79
2018-04-27T11:55:39.067Z,37.29
2018-04-27T11:56:43.299Z,38.84
2018-04-27T11:57:47.609Z,39.14
2018-04-27T11:58:51.921Z,39.37
2018-04-27T11:59:56.836Z,35.00
2018-04-27T12:01:01.423Z,36.26
2018-04-27T12:02:05.700Z,36.78
2018-04-27T12:03:09.960Z,37.32
2018-04-27T12:04:14.276Z,40.03
2018-04-27T12:05:18.620Z,39.77
2018-04-27T12:06:23.247Z,39.35
2018-04-27T12:07:27.468Z,41.14
2018-04-27T12:08:32.602Z,40.28
2018-04-27T12:09:36.743Z,39.21
2018-04-27T12:10:40.903Z,40.50
2018-04-27T12:11:45.360Z,39.09
2018-04-27T12:12:49.792Z,39.05
2018-04-27T12:13:53.978Z,40.37
2018-04-27T12:14:58.129Z,40.14
2018-04-27T12:16:02.864Z,40.67
2018-04-27T12:17:07.094Z,39.15
2018-04-27T12:18:11.306Z,36.61
2018-04-27T12:19:15.618Z,35.69
2018-04-27T12:20:19.947Z,31.98
2018-04-27T12:21:24.124Z,30.60
2018-04-27T12:22:28.277Z,30.43
2018-04-27T12:23:33.189Z,29.85
2018-04-27T12:24:37.374Z,32.10
2018-04-27T12:25:41.942Z,33.27
2018-04-27T12:26:46.118Z,34.98
2018-04-27T12:27:50.308Z,36.45
2018-04-27T12:28:54.515Z,37.38
2018-04-27T12:29:58.800Z,37.58
2018-04-27T12:31:03.019Z,35.46
2018-04-27T12:32:07.540Z,36.40
2018-04-27T12:33:11.734Z,36.43
2018-04-27T12:34:15.956Z,34.04
2018-04-27T12:35:20.100Z,36.20
2018-04-27T12:36:26.754Z,35.96
2018-04-27T12:37:31.851Z,34.97
2018-04-27T12:38:36.167Z,35.69
2018-04-27T12:39:40.306Z,36.23
2018-04-27T12:40:44.450Z,36.22
2018-04-27T12:41:48.718Z,34.58
2018-04-27T12:42:52.986Z,34.36
2018-04-27T12:43:57.246Z,31.64
2018-04-27T12:45:06.136Z,30.32
2018-04-27T12:46:10.298Z,29.19
2018-04-27T12:47:15.335Z,27.52
2018-04-27T12:48:19.553Z,29.84
2018-04-27T12:49:23.759Z,27.26
2018-04-27T12:50:27.898Z,28.96
2018-04-27T12:51:33.015Z,30.81
2018-04-27T12:52:37.225Z,31.05
2018-04-27T12:53:41.698Z,31.03
2018-04-27T12:54:46.253Z,31.74
2018-04-27T12:55:50.436Z,32.30
2018-04-27T12:56:54.604Z,31.68
2018-04-27T12:57:58.833Z,32.56
2018-04-27T12:59:03.107Z,33.07
2018-04-27T13:00:08.301Z,35.39
2018-04-27T13:01:13.105Z,35.74
2018-04-27T13:02:17.583Z,34.52
2018-04-27T13:03:21.751Z,35.27
2018-04-27T13:04:26.032Z,35.31
2018-04-27T13:05:31.489Z,35.18
2018-04-27T13:06:35.662Z,33.95
2018-04-27T13:07:39.807Z,34.26
2018-04-27T13:08:43.928Z,33.91
2018-04-27T13:09:48.642Z,33.62
2018-04-27T13:10:52.817Z,32.73
2018-04-27T13:11:56.976Z,34.86
2018-04-27T13:13:01.141Z,34.85
2018-04-27T13:14:05.419Z,34.91
2018-04-27T13:15:09.671Z,33.19
2018-04-27T13:16:13.970Z,32.10
2018-04-27T13:17:18.474Z,33.75
2018-04-27T13:18:23.407Z,33.86
2018-04-27T13:19:27.568Z,33.72
2018-04-27T13:20:32.367Z,32.77
2018-04-27T13:21:36.521Z,33.18
2018-04-27T13:22:40.671Z,33.16
2018-04-27T13:23:44.936Z,30.89
2018-04-27T13:24:49.137Z,31.38
2018-04-27T13:25:53.279Z,31.35
2018-04-27T13:26:57.439Z,30.03
2018-04-27T13:28:01.635Z,30.41
2018-04-27T13:29:06.065Z,27.98
2018-04-27T13:30:10.590Z,26.88
2018-04-27T13:31:14.962Z,27.54
2018-04-27T13:32:19.101Z,28.08
2018-04-27T13:33:24.077Z,27.26
2018-04-27T13:34:28.340Z,26.20
2018-04-27T13:35:32.514Z,24.88
2018-04-27T13:36:36.693Z,25.83
2018-04-27T13:37:40.900Z,25.57
2018-04-27T13:38:45.786Z,25.92
2018-04-27T13:39:50.088Z,24.04
2018-04-27T13:40:54.251Z,24.35
2018-04-27T13:41:58.829Z,22.61
2018-04-27T13:43:03.011Z,21.82
2018-04-27T13:44:07.229Z,22.73
2018-04-27T13:45:13.243Z,24.34
2018-04-27T13:46:17.621Z,25.81
2018-04-27T13:47:21.940Z,27.13
2018-04-27T13:48:26.263Z,30.13
2018-04-27T13:49:30.526Z,31.70
2018-04-27T13:50:34.800Z,32.01
2018-04-27T13:51:39.063Z,33.97